createdAt,value
2023-05-20T00:00:07.132Z,10.80
2023-05-20T00:02:09.686Z,10.60
2023-05-20T00:04:12.472Z,10.50
2023-05-20T00:06:15.190Z,10.40
2023-05-20T00:08:18.751Z,10.50
2023-05-20T00:10:21.305Z,10.50
2023-05-20T00:12:23.845Z,10.50
2023-05-20T00:14:26.370Z,10.60
2023-05-20T00:16:28.960Z,10.60
2023-05-20T00:18:32.312Z,10.60
2023-05-20T00:20:34.962Z,10.70
2023-05-20T00:22:37.543Z,10.70
2023-05-20T00:24:40.081Z,10.70
2023-05-20T00:26:42.610Z,10.70
2023-05-20T00:28:45.154Z,10.70
2023-05-20T00:30:47.774Z,10.70
2023-05-20T00:32:50.318Z,10.60
2023-05-20T00:34:57.040Z,10.50
2023-05-20T00:36:59.547Z,10.50
2023-05-20T00:39:02.106Z,10.20
2023-05-20T00:41:04.792Z,10.10
2023-05-20T00:43:07.372Z,10.20
2023-05-20T00:45:10.889Z,10.20
2023-05-20T00:47:13.687Z,10.10
2023-05-20T00:49:17.236Z,10.10
2023-05-20T00:51:19.951Z,10.20
2023-05-20T00:53:23.249Z,10.20
2023-05-20T00:55:26.080Z,10.30
2023-05-20T00:57:28.585Z,10.40
2023-05-20T00:59:31.236Z,10.50
2023-05-20T01:01:33.860Z,10.50
2023-05-20T01:03:36.744Z,10.60
2023-05-20T01:05:42.243Z,10.60
2023-05-20T01:07:44.231Z,10.60
2023-05-20T01:09:47.416Z,10.50
2023-05-20T01:11:52.444Z,10.40
2023-05-20T01:13:56.569Z,10.30
2023-05-20T01:16:00.487Z,10.20
2023-05-20T01:20:20.119Z,10.00
2023-05-20T01:22:24.251Z,10.00
2023-05-20T01:24:26.773Z,9.90
2023-05-20T01:26:29.431Z,9.90
2023-05-20T01:28:32.166Z,9.90
2023-05-20T01:30:36.984Z,10.00
2023-05-20T01:32:41.296Z,10.00
2023-05-20T01:34:44.692Z,10.10
2023-05-20T01:36:47.345Z,10.10
2023-05-20T01:38:50.559Z,10.10
2023-05-20T01:40:53.627Z,10.10
2023-05-20T01:42:56.142Z,10.00
2023-05-20T01:44:59.957Z,9.90
2023-05-20T01:47:02.704Z,9.90
2023-05-20T01:49:05.857Z,9.80
2023-05-20T01:51:08.470Z,9.80
2023-05-20T01:53:13.053Z,9.80
2023-05-20T01:55:17.627Z,9.80
2023-05-20T01:57:20.788Z,9.80
2023-05-20T01:59:24.916Z,9.70
2023-05-20T02:01:27.597Z,9.70
2023-05-20T02:03:30.334Z,9.70
2023-05-20T02:05:33.164Z,9.60
2023-05-20T02:07:36.631Z,9.70
2023-05-20T02:09:39.276Z,9.60
2023-05-20T02:11:41.899Z,9.60
2023-05-20T02:13:44.450Z,9.60
2023-05-20T02:15:47.062Z,9.40
2023-05-20T02:17:49.742Z,9.50
2023-05-20T02:19:52.540Z,9.40
2023-05-20T02:21:55.147Z,9.40
2023-05-20T02:23:57.797Z,9.40
2023-05-20T02:26:02.257Z,9.30
2023-05-20T02:28:05.527Z,9.20
2023-05-20T02:30:10.083Z,9.20
2023-05-20T02:32:13.346Z,9.30
2023-05-20T02:34:17.711Z,9.40
2023-05-20T02:36:20.575Z,9.40
2023-05-20T02:38:23.233Z,9.40
2023-05-20T02:40:25.830Z,9.40
2023-05-20T02:42:29.904Z,9.30
2023-05-20T02:44:32.527Z,9.30
2023-05-20T02:46:35.152Z,9.20
2023-05-20T02:48:37.793Z,9.20
2023-05-20T02:50:40.414Z,9.10
2023-05-20T02:52:44.942Z,9.10
2023-05-20T02:54:47.882Z,9.10
2023-05-20T02:56:50.549Z,9.10
2023-05-20T02:58:54.282Z,9.00
2023-05-20T03:00:57.600Z,8.90
2023-05-20T03:03:00.332Z,8.90
2023-05-20T03:05:04.863Z,8.90
2023-05-20T03:07:08.428Z,8.90
2023-05-20T03:09:11.266Z,8.90
2023-05-20T03:11:13.919Z,8.90
2023-05-20T03:15:32.508Z,9.00
2023-05-20T03:17:35.348Z,9.10
2023-05-20T03:19:38.048Z,9.10
2023-05-20T03:21:40.711Z,9.20
2023-05-20T03:23:43.978Z,9.30
2023-05-20T03:25:47.033Z,9.40
2023-05-20T03:27:49.693Z,9.40
2023-05-20T03:29:54.181Z,9.40
2023-05-20T03:31:56.911Z,9.50
2023-05-20T03:33:59.555Z,9.40
2023-05-20T03:36:02.119Z,9.30
2023-05-20T03:38:05.180Z,9.20
2023-05-20T03:40:10.169Z,9.10
2023-05-20T03:42:13.191Z,9.10
2023-05-20T03:44:16.510Z,9.00
2023-05-20T03:46:33.735Z,8.80
2023-05-20T03:48:36.417Z,8.80
2023-05-20T03:50:39.937Z,8.80
2023-05-20T03:52:42.459Z,9.00
2023-05-20T03:54:45.165Z,9.00
2023-05-20T03:56:49.042Z,9.00
2023-05-20T03:58:52.069Z,9.00
2023-05-20T04:00:54.783Z,9.00
2023-05-20T04:02:57.496Z,9.00
2023-05-20T04:05:00.755Z,9.00
2023-05-20T04:07:04.297Z,9.10
2023-05-20T04:09:06.961Z,9.10
2023-05-20T04:11:09.764Z,9.20
2023-05-20T04:13:12.317Z,9.30
2023-05-20T04:15:15.529Z,9.40
2023-05-20T04:17:19.930Z,9.50
2023-05-20T04:19:23.721Z,9.40
2023-05-20T04:21:26.710Z,9.50
2023-05-20T04:23:29.432Z,9.50
2023-05-20T04:25:32.772Z,9.40
2023-05-20T04:27:37.120Z,9.50
2023-05-20T04:29:41.022Z,9.50
2023-05-20T04:31:45.147Z,9.50
2023-05-20T04:33:48.342Z,9.60
2023-05-20T04:35:51.912Z,9.70
2023-05-20T04:37:55.031Z,9.80
2023-05-20T04:39:58.685Z,10.00
2023-05-20T04:42:02.536Z,10.10
2023-05-20T04:44:05.768Z,10.20
2023-05-20T04:46:09.210Z,10.30
2023-05-20T04:48:14.134Z,10.40
2023-05-20T04:50:16.800Z,10.50
2023-05-20T04:52:19.435Z,10.50
2023-05-20T04:54:22.114Z,10.50
2023-05-20T04:56:25.626Z,10.50
2023-05-20T04:58:29.677Z,10.60
2023-05-20T05:00:32.332Z,10.60
2023-05-20T05:02:35.113Z,10.70
2023-05-20T05:04:38.972Z,10.70
2023-05-20T05:06:41.899Z,10.80
2023-05-20T05:08:45.435Z,10.70
2023-05-20T05:10:48.074Z,10.80
2023-05-20T05:12:50.606Z,10.80
2023-05-20T05:14:53.255Z,10.80
2023-05-20T05:16:56.268Z,10.80
2023-05-20T05:18:58.924Z,10.90
2023-05-20T05:21:04.056Z,11.00
2023-05-20T05:23:06.932Z,11.00
2023-05-20T05:25:10.976Z,11.10
2023-05-20T05:27:13.732Z,11.20
2023-05-20T05:29:16.613Z,11.40
2023-05-20T05:31:19.330Z,11.50
2023-05-20T05:33:22.091Z,11.60
2023-05-20T05:35:24.761Z,11.60
2023-05-20T05:37:27.417Z,11.80
2023-05-20T05:39:29.976Z,11.90
2023-05-20T05:41:32.623Z,11.90
2023-05-20T05:43:35.454Z,12.10
2023-05-20T05:45:38.495Z,12.10
2023-05-20T05:47:42.563Z,12.20
2023-05-20T05:49:45.569Z,12.20
2023-05-20T05:51:48.325Z,12.20
2023-05-20T05:53:50.976Z,12.20
2023-05-20T05:55:53.720Z,12.20
2023-05-20T05:57:56.326Z,12.30
2023-05-20T05:59:59.181Z,12.40
2023-05-20T06:02:03.107Z,12.50
2023-05-20T06:04:06.323Z,12.60
2023-05-20T06:06:10.027Z,12.60
2023-05-20T06:08:12.699Z,12.70
2023-05-20T06:10:15.489Z,12.70
2023-05-20T06:12:18.128Z,12.70
2023-05-20T06:16:36.321Z,12.70
2023-05-20T06:18:39.376Z,12.70
2023-05-20T06:20:42.196Z,12.70
2023-05-20T06:22:44.950Z,12.70
2023-05-20T06:24:48.211Z,12.80
2023-05-20T06:26:51.930Z,12.80
2023-05-20T06:28:54.846Z,13.00
2023-05-20T06:30:58.137Z,12.90
2023-05-20T06:33:02.436Z,12.90
2023-05-20T06:35:06.556Z,13.00
2023-05-20T06:37:09.587Z,12.80
2023-05-20T06:39:12.557Z,12.90
2023-05-20T06:41:16.952Z,12.90
2023-05-20T06:43:19.742Z,12.80
2023-05-20T06:45:24.153Z,12.80
2023-05-20T06:47:28.721Z,12.80
2023-05-20T06:49:31.743Z,12.90
2023-05-20T06:51:34.394Z,12.90
2023-05-20T06:53:37.077Z,12.90
2023-05-20T06:55:40.004Z,12.90
2023-05-20T06:57:44.412Z,12.90
2023-05-20T06:59:47.681Z,12.90
2023-05-20T07:01:51.207Z,12.90
2023-05-20T07:03:54.258Z,12.90
2023-05-20T07:05:56.867Z,12.90
2023-05-20T07:07:59.918Z,12.90
2023-05-20T07:10:05.151Z,12.90
2023-05-20T07:12:08.187Z,12.90
2023-05-20T07:14:11.363Z,13.00
2023-05-20T07:16:18.203Z,13.10
2023-05-20T07:18:23.234Z,13.10
2023-05-20T07:20:28.644Z,13.10
2023-05-20T07:22:32.674Z,13.20
2023-05-20T07:24:37.116Z,13.20
2023-05-20T07:26:40.865Z,13.10
2023-05-20T07:28:45.228Z,13.20
2023-05-20T07:30:49.664Z,13.20
2023-05-20T07:32:54.162Z,13.30
2023-05-20T07:34:58.001Z,13.20
2023-05-20T07:37:01.154Z,13.30
2023-05-20T07:39:07.093Z,13.30
2023-05-20T07:41:10.963Z,13.40
2023-05-20T07:43:13.588Z,13.40
2023-05-20T07:45:18.029Z,13.40
2023-05-20T07:47:21.420Z,13.50
2023-05-20T07:49:23.998Z,13.50
2023-05-20T07:51:26.684Z,13.60
2023-05-20T07:53:29.425Z,13.60
2023-05-20T07:55:34.127Z,13.60
2023-05-20T07:57:37.436Z,13.60
2023-05-20T07:59:40.757Z,13.60
2023-05-20T08:01:43.793Z,13.60
2023-05-20T08:03:47.177Z,13.60
2023-05-20T08:05:52.643Z,13.70
2023-05-20T08:07:55.886Z,13.70
2023-05-20T08:10:00.508Z,13.70
2023-05-20T08:12:03.520Z,13.70
2023-05-20T08:14:06.242Z,13.80
2023-05-20T08:16:10.684Z,13.80
2023-05-20T08:18:13.310Z,13.90
2023-05-20T08:20:16.433Z,13.90
2023-05-20T08:22:19.062Z,13.90
2023-05-20T08:24:21.682Z,13.90
2023-05-20T08:26:24.528Z,14.00
2023-05-20T08:28:27.466Z,14.00
2023-05-20T08:30:30.356Z,14.00
2023-05-20T08:32:33.502Z,14.00
2023-05-20T08:34:36.578Z,14.20
2023-05-20T08:36:39.965Z,14.10
2023-05-20T08:38:43.080Z,14.20
2023-05-20T08:40:46.312Z,14.30
2023-05-20T08:42:49.223Z,14.30
2023-05-20T08:44:52.620Z,14.30
2023-05-20T08:46:56.818Z,14.30
2023-05-20T08:48:59.579Z,14.20
2023-05-20T08:51:03.236Z,14.20
2023-05-20T08:53:05.762Z,14.30
2023-05-20T08:55:09.502Z,14.30
2023-05-20T08:57:13.553Z,14.30
2023-05-20T08:59:17.442Z,14.30
2023-05-20T09:01:21.899Z,14.30
2023-05-20T09:03:25.295Z,14.40
2023-05-20T09:05:27.832Z,14.40
2023-05-20T09:07:30.883Z,14.50
2023-05-20T09:09:34.221Z,14.60
2023-05-20T09:11:36.853Z,14.60
2023-05-20T09:13:39.416Z,14.60
2023-05-20T09:15:41.967Z,14.70
2023-05-20T09:17:44.520Z,14.70
2023-05-20T09:19:49.366Z,14.80
2023-05-20T09:21:52.517Z,14.90
2023-05-20T09:23:56.828Z,15.00
2023-05-20T09:26:00.969Z,15.10
2023-05-20T09:28:04.303Z,15.10
2023-05-20T09:32:23.856Z,15.20
2023-05-20T09:34:26.371Z,15.20
2023-05-20T09:36:29.571Z,15.30
2023-05-20T09:38:35.737Z,15.40
2023-05-20T09:40:40.759Z,15.40
2023-05-20T09:42:45.636Z,15.60
2023-05-20T09:44:48.554Z,15.60
2023-05-20T09:46:52.592Z,15.70
2023-05-20T09:48:55.224Z,15.70
2023-05-20T09:50:57.800Z,16.00
2023-05-20T09:53:02.734Z,15.90
2023-05-20T09:55:06.719Z,16.00
2023-05-20T09:57:09.237Z,16.10
2023-05-20T09:59:12.188Z,15.90
2023-05-20T10:01:14.892Z,16.00
2023-05-20T10:03:18.270Z,16.20
2023-05-20T10:05:21.740Z,16.30
2023-05-20T10:07:41.220Z,16.30
2023-05-20T10:09:40.268Z,16.40
2023-05-20T10:11:44.615Z,16.60
2023-05-20T10:13:51.797Z,16.70
2023-05-20T10:15:57.259Z,17.00
2023-05-20T10:18:02.214Z,17.00
2023-05-20T10:20:08.626Z,17.10
2023-05-20T10:22:11.795Z,17.00
2023-05-20T10:24:14.335Z,17.20
2023-05-20T10:26:16.981Z,17.40
2023-05-20T10:28:27.296Z,17.80
2023-05-20T10:30:30.455Z,18.00
2023-05-20T10:32:34.218Z,18.00
2023-05-20T10:34:45.510Z,17.90
2023-05-20T10:36:49.957Z,17.80
2023-05-20T10:38:53.378Z,17.80
2023-05-20T10:40:56.933Z,17.90
2023-05-20T10:43:01.283Z,18.00
2023-05-20T10:45:04.342Z,17.80
2023-05-20T10:47:24.746Z,17.70
2023-05-20T10:49:18.999Z,18.10
2023-05-20T10:51:21.572Z,18.40
2023-05-20T10:53:33.441Z,18.60
2023-05-20T10:55:31.206Z,16.10
2023-05-20T10:57:34.246Z,18.30
2023-05-20T10:59:36.932Z,18.40
2023-05-20T11:01:39.638Z,18.00
2023-05-20T11:03:43.501Z,18.10
2023-05-20T11:05:47.474Z,18.20
2023-05-20T11:07:50.623Z,18.30
2023-05-20T11:09:53.125Z,18.10
2023-05-20T11:11:55.651Z,18.10
2023-05-20T11:14:00.067Z,18.10
2023-05-20T11:16:04.068Z,18.10
2023-05-20T11:18:06.809Z,18.00
2023-05-20T11:20:11.808Z,18.10
2023-05-20T11:22:14.360Z,18.00
2023-05-20T11:24:23.465Z,18.00
2023-05-20T11:26:26.005Z,17.90
2023-05-20T11:28:30.245Z,18.00
2023-05-20T11:30:32.800Z,18.10
2023-05-20T11:32:36.580Z,18.00
2023-05-20T11:34:39.337Z,18.10
2023-05-20T11:36:42.123Z,18.30
2023-05-20T11:38:46.195Z,18.50
2023-05-20T11:40:51.702Z,18.50
2023-05-20T11:42:55.863Z,18.50
2023-05-20T11:45:01.327Z,18.20
2023-05-20T11:47:04.333Z,18.30
2023-05-20T11:49:08.070Z,18.40
2023-05-20T11:51:10.636Z,18.60
2023-05-20T11:53:15.551Z,18.60
2023-05-20T11:55:18.196Z,18.60
2023-05-20T11:57:20.805Z,18.70
2023-05-20T11:59:24.758Z,18.70
2023-05-20T12:01:28.498Z,18.60
2023-05-20T12:03:32.524Z,18.50
2023-05-20T12:05:35.668Z,18.30
2023-05-20T12:07:38.176Z,18.30
2023-05-20T12:09:40.740Z,18.40
2023-05-20T12:11:44.732Z,18.40
2023-05-20T12:13:47.324Z,18.40
2023-05-20T12:15:49.878Z,18.60
2023-05-20T12:17:53.061Z,18.70
2023-05-20T12:19:55.681Z,18.90
2023-05-20T12:21:58.207Z,18.90
2023-05-20T12:24:00.776Z,18.80
2023-05-20T12:26:03.363Z,18.80
2023-05-20T12:28:06.672Z,18.80
2023-05-20T12:30:10.264Z,18.80
2023-05-20T12:32:12.919Z,18.70
2023-05-20T12:34:15.664Z,18.50
2023-05-20T12:36:18.901Z,18.40
2023-05-20T12:38:21.454Z,18.40
2023-05-20T12:40:24.000Z,18.40
2023-05-20T12:42:26.514Z,18.20
2023-05-20T12:44:29.070Z,18.10
2023-05-20T12:46:31.628Z,18.30
2023-05-20T12:48:34.167Z,18.20
2023-05-20T12:50:36.827Z,18.30
2023-05-20T12:52:39.760Z,18.20
2023-05-20T12:54:42.277Z,18.00
2023-05-20T12:56:47.009Z,18.00
2023-05-20T12:58:49.598Z,17.90
2023-05-20T13:00:52.346Z,17.90
2023-05-20T13:02:55.091Z,18.10
2023-05-20T13:04:57.729Z,18.20
2023-05-20T13:07:00.361Z,18.20
2023-05-20T13:09:03.157Z,18.20
2023-05-20T13:11:05.699Z,18.00
2023-05-20T13:13:08.360Z,18.10
2023-05-20T13:15:11.527Z,18.20
2023-05-20T13:17:14.024Z,18.20
2023-05-20T13:19:16.640Z,18.20
2023-05-20T13:21:19.312Z,18.30
2023-05-20T13:23:21.871Z,18.40
2023-05-20T13:25:24.391Z,18.40
2023-05-20T13:27:26.951Z,18.30
2023-05-20T13:29:30.155Z,18.20
2023-05-20T13:31:33.014Z,18.10
2023-05-20T13:33:35.548Z,17.80
2023-05-20T13:35:38.185Z,17.70
2023-05-20T13:37:40.770Z,17.60
2023-05-20T13:39:43.314Z,17.70
2023-05-20T13:41:45.985Z,17.70
2023-05-20T13:43:48.652Z,17.80
2023-05-20T13:45:51.209Z,17.90
2023-05-20T13:47:53.766Z,18.00
2023-05-20T13:49:56.570Z,18.00
2023-05-20T13:52:00.321Z,18.10
2023-05-20T13:54:02.959Z,18.30
2023-05-20T13:56:05.578Z,18.40
2023-05-20T13:58:08.700Z,18.40
2023-05-20T14:00:12.932Z,18.70
2023-05-20T14:02:15.594Z,18.90
2023-05-20T14:04:18.221Z,18.70
2023-05-20T14:06:20.724Z,18.60
2023-05-20T14:08:23.305Z,18.60
2023-05-20T14:10:25.830Z,18.70
2023-05-20T14:12:28.438Z,18.80
2023-05-20T14:14:31.085Z,18.90
2023-05-20T14:16:33.671Z,19.10
2023-05-20T14:18:36.244Z,19.30
2023-05-20T14:20:38.959Z,19.40
2023-05-20T14:22:41.471Z,19.60
2023-05-20T14:24:43.973Z,19.70
2023-05-20T14:26:46.526Z,19.80
2023-05-20T14:28:49.066Z,19.80
2023-05-20T14:30:52.682Z,19.60
2023-05-20T14:32:55.398Z,19.50
2023-05-20T14:34:58.014Z,19.40
2023-05-20T14:37:02.561Z,19.30
2023-05-20T14:39:05.091Z,19.10
2023-05-20T14:41:07.655Z,18.90
2023-05-20T14:43:10.185Z,18.70
2023-05-20T14:45:12.733Z,18.70
2023-05-20T14:47:17.666Z,18.50
2023-05-20T14:49:20.143Z,18.40
2023-05-20T14:51:22.704Z,18.40
2023-05-20T14:53:25.234Z,18.40
2023-05-20T14:55:27.787Z,18.40
2023-05-20T14:57:30.301Z,18.30
2023-05-20T14:59:32.917Z,18.10
2023-05-20T15:01:35.573Z,17.90
2023-05-20T15:03:38.326Z,17.90
2023-05-20T15:05:41.620Z,17.90
2023-05-20T15:07:44.855Z,17.90
2023-05-20T15:09:49.338Z,17.90
2023-05-20T15:11:51.876Z,17.80
2023-05-20T15:13:54.399Z,17.80
2023-05-20T15:15:56.971Z,17.80
2023-05-20T15:17:59.620Z,17.70
2023-05-20T15:20:02.349Z,17.70
2023-05-20T15:22:04.949Z,17.70
2023-05-20T15:24:07.488Z,17.60
2023-05-20T15:26:11.619Z,17.70
2023-05-20T15:28:14.165Z,17.60
2023-05-20T15:30:16.952Z,17.60
2023-05-20T15:32:19.862Z,17.60
2023-05-20T15:34:22.531Z,17.60
2023-05-20T15:36:26.672Z,17.50
2023-05-20T15:38:29.269Z,17.50
2023-05-20T15:40:31.854Z,17.50
2023-05-20T15:42:34.458Z,17.50
2023-05-20T15:44:37.109Z,17.50
2023-05-20T15:46:39.891Z,17.50
2023-05-20T15:48:42.514Z,17.50
2023-05-20T15:50:45.300Z,17.50
2023-05-20T15:52:47.884Z,17.40
2023-05-20T15:54:50.531Z,17.30
2023-05-20T15:56:53.324Z,17.30
2023-05-20T15:58:55.873Z,17.40
2023-05-20T16:00:58.392Z,17.40
2023-05-20T16:03:01.196Z,17.30
2023-05-20T16:05:04.367Z,17.30
2023-05-20T16:07:07.084Z,17.30
2023-05-20T16:09:09.613Z,17.20
2023-05-20T16:11:12.188Z,17.20
2023-05-20T16:13:14.744Z,17.20
2023-05-20T16:15:17.332Z,17.20
2023-05-20T16:17:21.281Z,17.20
2023-05-20T16:19:23.971Z,17.20
2023-05-20T16:21:26.613Z,17.20
2023-05-20T16:23:29.187Z,17.20
2023-05-20T16:25:31.707Z,17.10
2023-05-20T16:27:34.252Z,17.20
2023-05-20T16:29:38.825Z,17.20
2023-05-20T16:31:43.328Z,17.30
2023-05-20T16:33:46.180Z,17.20
2023-05-20T16:35:48.798Z,17.20
2023-05-20T16:37:51.383Z,17.20
2023-05-20T16:39:54.003Z,17.30
2023-05-20T16:41:56.532Z,17.30
2023-05-20T16:43:59.194Z,17.20
2023-05-20T16:46:01.757Z,17.30
2023-05-20T16:48:05.057Z,17.20
2023-05-20T16:50:09.593Z,17.20
2023-05-20T16:52:12.148Z,17.20
2023-05-20T16:54:14.781Z,17.10
2023-05-20T16:56:17.315Z,17.20
2023-05-20T16:58:20.104Z,17.00
2023-05-20T17:00:22.668Z,17.00
2023-05-20T17:02:25.527Z,17.00
2023-05-20T17:04:28.202Z,17.00
2023-05-20T17:06:33.712Z,17.00
2023-05-20T17:08:37.520Z,17.00
2023-05-20T17:10:40.041Z,17.10
2023-05-20T17:12:42.596Z,17.00
2023-05-20T17:14:45.149Z,17.00
2023-05-20T17:16:47.774Z,17.00
2023-05-20T17:18:53.324Z,17.00
2023-05-20T17:20:56.156Z,17.00
2023-05-20T17:22:58.728Z,17.00
2023-05-20T17:25:01.265Z,17.00
2023-05-20T17:27:05.527Z,16.90
2023-05-20T17:29:08.091Z,16.90
2023-05-20T17:31:11.260Z,16.90
2023-05-20T17:33:13.889Z,16.90
2023-05-20T17:35:16.669Z,16.90
2023-05-20T17:37:19.269Z,16.80
2023-05-20T17:39:21.925Z,16.80
2023-05-20T17:41:24.475Z,16.80
2023-05-20T17:43:27.041Z,16.80
2023-05-20T17:45:29.608Z,16.80
2023-05-20T17:47:32.195Z,16.70
2023-05-20T17:49:34.819Z,16.80
2023-05-20T17:51:37.334Z,16.80
2023-05-20T17:53:39.908Z,16.70
2023-05-20T17:55:44.311Z,16.70
2023-05-20T17:57:46.873Z,16.70
2023-05-20T17:59:50.383Z,16.60
2023-05-20T18:01:53.036Z,16.60
2023-05-20T18:03:56.677Z,16.60
2023-05-20T18:05:59.452Z,16.50
2023-05-20T18:08:02.766Z,16.50
2023-05-20T18:10:06.905Z,16.50
2023-05-20T18:12:09.640Z,16.50
2023-05-20T18:14:12.731Z,16.50
2023-05-20T18:16:15.411Z,16.50
2023-05-20T18:18:18.026Z,16.50
2023-05-20T18:20:20.682Z,16.50
2023-05-20T18:22:34.323Z,16.50
2023-05-20T18:24:38.733Z,16.50
2023-05-20T18:26:41.290Z,16.50
2023-05-20T18:28:43.846Z,16.50
2023-05-20T18:30:46.404Z,16.40
2023-05-20T18:32:49.128Z,16.40
2023-05-20T18:37:06.835Z,16.40
2023-05-20T18:39:09.474Z,16.40
2023-05-20T18:41:12.024Z,16.40
2023-05-20T18:43:14.565Z,16.30
2023-05-20T18:45:17.360Z,16.30
2023-05-20T18:47:20.609Z,16.20
2023-05-20T18:49:23.142Z,16.20
2023-05-20T18:51:26.768Z,16.20
2023-05-20T18:53:29.454Z,16.10
2023-05-20T18:55:31.973Z,16.10
2023-05-20T18:57:34.483Z,16.00
2023-05-20T18:59:37.049Z,16.00
2023-05-20T19:01:39.637Z,16.00
2023-05-20T19:03:43.687Z,16.00
2023-05-20T19:05:46.432Z,15.90
2023-05-20T19:07:49.203Z,15.80
2023-05-20T19:09:51.793Z,15.90
2023-05-20T19:11:56.119Z,15.90
2023-05-20T19:13:58.868Z,15.80
2023-05-20T19:16:01.537Z,15.90
2023-05-20T19:18:04.278Z,15.90
2023-05-20T19:20:08.463Z,15.80
2023-05-20T19:22:11.119Z,15.80
2023-05-20T19:24:13.644Z,15.90
2023-05-20T19:26:16.279Z,15.80
2023-05-20T19:28:19.229Z,15.80
2023-05-20T19:30:21.827Z,15.80
2023-05-20T19:32:24.368Z,15.80
2023-05-20T19:36:42.419Z,15.80
2023-05-20T19:38:44.986Z,15.80
2023-05-20T19:40:47.528Z,15.70
2023-05-20T19:42:51.877Z,15.70
2023-05-20T19:44:54.428Z,15.70
2023-05-20T19:46:57.107Z,15.70
2023-05-20T19:48:59.618Z,15.80
2023-05-20T19:51:02.290Z,15.70
2023-05-20T19:53:06.633Z,15.70
2023-05-20T19:55:09.960Z,15.70
2023-05-20T19:57:12.496Z,15.70
2023-05-20T19:59:15.656Z,15.70
2023-05-20T20:01:18.901Z,15.60
2023-05-20T20:03:21.648Z,15.70
2023-05-20T20:05:25.176Z,15.60
2023-05-20T20:07:27.684Z,15.80
2023-05-20T20:09:30.787Z,15.60
2023-05-20T20:11:33.324Z,15.80
2023-05-20T20:13:35.868Z,15.70
2023-05-20T20:15:39.545Z,15.70
2023-05-20T20:17:44.798Z,15.60
2023-05-20T20:19:47.409Z,15.60
2023-05-20T20:21:52.368Z,15.60
2023-05-20T20:23:54.908Z,15.60
2023-05-20T20:25:57.420Z,15.60
2023-05-20T20:27:59.928Z,15.60
2023-05-20T20:30:02.490Z,15.60
2023-05-20T20:32:05.875Z,15.60
2023-05-20T20:34:08.349Z,15.60
2023-05-20T20:36:10.936Z,15.50
2023-05-20T20:38:14.390Z,15.50
2023-05-20T20:40:17.565Z,15.50
2023-05-20T20:42:21.772Z,15.50
2023-05-20T20:44:24.879Z,15.40
2023-05-20T20:46:27.633Z,15.40
2023-05-20T20:48:30.406Z,15.40
2023-05-20T20:50:33.332Z,15.40
2023-05-20T20:52:38.023Z,15.40
2023-05-20T20:54:43.139Z,15.30
2023-05-20T20:56:46.488Z,15.40
2023-05-20T20:58:50.821Z,15.30
2023-05-20T21:00:53.783Z,15.30
2023-05-20T21:02:56.414Z,15.30
2023-05-20T21:05:00.936Z,15.30
2023-05-20T21:07:04.284Z,15.20
2023-05-20T21:09:06.926Z,15.20
2023-05-20T21:11:09.472Z,15.30
2023-05-20T21:13:12.000Z,15.30
2023-05-20T21:15:14.716Z,15.10
2023-05-20T21:17:17.391Z,15.20
2023-05-20T21:19:20.015Z,15.10
2023-05-20T21:21:22.588Z,15.10
2023-05-20T21:23:25.136Z,15.10
2023-05-20T21:25:27.802Z,15.00
2023-05-20T21:27:30.339Z,15.00
2023-05-20T21:29:34.733Z,15.00
2023-05-20T21:31:37.362Z,15.00
2023-05-20T21:33:39.918Z,14.90
2023-05-20T21:35:42.609Z,14.90
2023-05-20T21:37:45.176Z,14.90
2023-05-20T21:39:47.856Z,14.90
2023-05-20T21:41:50.579Z,14.90
2023-05-20T21:43:53.105Z,14.90
2023-05-20T21:45:55.699Z,14.90
2023-05-20T21:47:58.360Z,14.90
2023-05-20T21:50:00.920Z,14.90
2023-05-20T21:52:03.629Z,14.90
2023-05-20T21:54:06.151Z,14.80
2023-05-20T21:56:08.733Z,14.80
2023-05-20T21:58:11.255Z,14.80
2023-05-20T22:00:15.068Z,14.80
2023-05-20T22:02:17.788Z,14.70
2023-05-20T22:04:21.172Z,14.70
2023-05-20T22:06:25.128Z,14.70
2023-05-20T22:08:29.510Z,14.70
2023-05-20T22:10:33.379Z,14.70
2023-05-20T22:12:37.421Z,14.70
2023-05-20T22:14:40.022Z,14.70
2023-05-20T22:16:44.707Z,14.70
2023-05-20T22:18:47.285Z,14.70
2023-05-20T22:20:50.820Z,14.70
2023-05-20T22:22:55.432Z,14.60
2023-05-20T22:24:59.967Z,14.60
2023-05-20T22:27:04.884Z,14.60
2023-05-20T22:29:08.757Z,14.50
2023-05-20T22:31:11.697Z,14.50
2023-05-20T22:33:14.341Z,14.50
2023-05-20T22:35:16.993Z,14.50
2023-05-20T22:37:19.663Z,14.50
2023-05-20T22:39:22.244Z,14.40
2023-05-20T22:43:39.998Z,14.30
2023-05-20T22:45:42.607Z,14.30
2023-05-20T22:47:45.698Z,14.20
2023-05-20T22:49:48.283Z,14.10
2023-05-20T22:51:52.431Z,14.00
2023-05-20T22:53:56.189Z,13.90
2023-05-20T22:55:59.316Z,13.90
2023-05-20T22:58:02.028Z,13.80
2023-05-20T23:00:07.152Z,13.70
2023-05-20T23:02:09.667Z,13.60
2023-05-20T23:04:12.258Z,13.60
2023-05-20T23:06:14.963Z,13.40
2023-05-20T23:08:17.427Z,13.30
2023-05-20T23:10:20.225Z,13.30
2023-05-20T23:12:22.956Z,13.20
2023-05-20T23:14:25.496Z,13.20
2023-05-20T23:16:28.921Z,13.20
2023-05-20T23:18:32.544Z,13.20
2023-05-20T23:20:35.156Z,13.30
2023-05-20T23:22:38.208Z,13.30
2023-05-20T23:24:40.868Z,13.30
2023-05-20T23:26:43.669Z,13.40
2023-05-20T23:28:47.492Z,13.30
2023-05-20T23:30:50.269Z,13.40
2023-05-20T23:32:52.926Z,13.40
2023-05-20T23:34:55.536Z,13.40
2023-05-20T23:36:58.085Z,13.50
2023-05-20T23:39:00.803Z,13.50
2023-05-20T23:41:03.392Z,13.50
2023-05-20T23:43:05.940Z,13.50
2023-05-20T23:45:09.719Z,13.50
2023-05-20T23:47:13.213Z,13.50
2023-05-20T23:49:17.760Z,13.50
2023-05-20T23:51:20.299Z,13.40
2023-05-20T23:55:43.664Z,13.60
2023-05-20T23:57:46.310Z,13.50
2023-05-20T23:59:48.828Z,13.50
